Time;durP1;ratioP1;P1;durP2;ratioP2;P2;SDS_P1;SDS_P2;PMS_P1;PMS_P2;Temp;Humidity;BMP_temperature;BMP_pressure;BME280_temperature;BME280_humidity;BME280_pressure;Samples;Min_cycle;Max_cycle;Signal;HPM_P1;HPM_P2
2023/08/19 00:01:28;;;;;;;;;;;25.50;59.80;;;;;;5032321;28;20520;-72
2023/08/19 00:03:54;;;;;;;;;;;25.50;59.60;;;;;;5027984;28;19923;-72
2023/08/19 00:06:35;;;;;;;;;;;25.50;59.70;;;;;;5032416;28;19956;-71
2023/08/19 00:09:04;;;;;;;;;;;25.40;59.70;;;;;;5012471;28;20357;-72
2023/08/19 00:11:30;;;;;;;;;;;25.40;60.00;;;;;;5020435;28;20261;-72
2023/08/19 00:13:56;;;;;;;;;;;25.30;60.00;;;;;;5033475;28;19960;-72
2023/08/19 00:16:21;;;;;;;;;;;25.30;60.10;;;;;;5033335;28;20316;-72
2023/08/19 00:18:48;;;;;;;;;;;25.30;60.20;;;;;;5033353;28;19917;-72
2023/08/19 00:21:13;;;;;;;;;;;25.30;60.30;;;;;;5031467;28;20012;-72
2023/08/19 00:23:39;;;;;;;;;;;25.30;60.60;;;;;;5033636;28;19995;-70
2023/08/19 00:26:04;;;;;;;;;;;25.30;60.50;;;;;;5033093;28;20348;-72
2023/08/19 00:28:29;;;;;;;;;;;25.30;60.70;;;;;;5033150;28;19913;-72
2023/08/19 00:30:55;;;;;;;;;;;25.30;60.90;;;;;;5038563;28;19940;-79
2023/08/19 00:33:23;;;;;;;;;;;25.30;61.00;;;;;;5043670;28;19913;-77
2023/08/19 00:35:51;;;;;;;;;;;25.30;61.00;;;;;;5044858;28;19989;-78
2023/08/19 00:38:17;;;;;;;;;;;25.30;60.90;;;;;;5040672;28;19940;-77
2023/08/19 00:40:43;;;;;;;;;;;25.30;61.00;;;;;;5026960;28;19929;-77
2023/08/19 00:43:08;;;;;;;;;;;25.30;60.90;;;;;;5028339;28;20024;-74
2023/08/19 00:45:36;;;;;;;;;;;25.30;61.00;;;;;;5041015;28;20360;-77
2023/08/19 00:48:02;;;;;;;;;;;25.30;60.80;;;;;;5044610;28;19917;-76
2023/08/19 00:50:28;;;;;;;;;;;25.20;60.80;;;;;;5041257;28;19932;-77
2023/08/19 00:52:54;;;;;;;;;;;25.30;60.80;;;;;;5042246;28;20007;-78
2023/08/19 00:55:19;;;;;;;;;;;25.20;60.70;;;;;;5043234;28;19917;-76
2023/08/19 00:57:45;;;;;;;;;;;25.10;60.80;;;;;;5044103;28;19963;-77
2023/08/19 01:00:11;;;;;;;;;;;25.10;60.80;;;;;;5043839;28;19928;-77
2023/08/19 01:02:36;;;;;;;;;;;25.00;60.80;;;;;;5036631;28;19976;-78
2023/08/19 01:05:02;;;;;;;;;;;25.00;60.90;;;;;;5024070;28;20028;-77
2023/08/19 01:07:31;;;;;;;;;;;25.00;61.10;;;;;;5037246;28;19920;-77
2023/08/19 01:10:14;;;;;;;;;;;24.90;61.00;;;;;;5044266;28;19917;-76
2023/08/19 01:13:00;;;;;;;;;;;25.00;61.00;;;;;;5023050;28;19925;-78
2023/08/19 01:15:29;;;;;;;;;;;24.90;60.90;;;;;;5025261;28;19917;-77
2023/08/19 01:17:55;;;;;;;;;;;24.80;60.90;;;;;;5027263;28;19920;-78
2023/08/19 01:20:23;;;;;;;;;;;24.80;60.80;;;;;;5046205;28;19921;-78
2023/08/19 01:22:55;;;;;;;;;;;24.80;60.80;;;;;;5042701;28;19909;-75
2023/08/19 01:25:21;;;;;;;;;;;24.70;60.90;;;;;;5042599;28;19921;-77
2023/08/19 01:27:47;;;;;;;;;;;24.70;61.00;;;;;;5043537;28;19969;-78
2023/08/19 01:30:12;;;;;;;;;;;24.70;61.00;;;;;;5044141;28;19924;-78
2023/08/19 01:32:38;;;;;;;;;;;24.60;61.00;;;;;;5045900;28;19996;-77
2023/08/19 01:35:04;;;;;;;;;;;24.60;61.10;;;;;;5045365;28;19924;-78
2023/08/19 01:37:39;;;;;;;;;;;24.50;61.20;;;;;;5046439;28;19913;-78
2023/08/19 01:40:07;;;;;;;;;;;24.50;61.50;;;;;;5045309;28;19944;-73
2023/08/19 01:42:32;;;;;;;;;;;24.50;61.80;;;;;;5030445;28;20378;-71
2023/08/19 01:44:58;;;;;;;;;;;24.40;62.30;;;;;;5030558;28;20008;-71
2023/08/19 01:47:23;;;;;;;;;;;24.50;62.40;;;;;;5031691;28;20292;-72
2023/08/19 01:49:49;;;;;;;;;;;24.50;62.40;;;;;;5032126;28;19975;-72
2023/08/19 01:52:16;;;;;;;;;;;24.50;62.60;;;;;;5031983;28;19909;-71
2023/08/19 01:54:42;;;;;;;;;;;24.50;62.50;;;;;;5029810;28;19921;-71
2023/08/19 01:57:07;;;;;;;;;;;24.50;62.50;;;;;;5030297;28;20062;-72
2023/08/19 01:59:33;;;;;;;;;;;24.50;62.50;;;;;;5031597;28;20411;-71
2023/08/19 02:01:59;;;;;;;;;;;24.50;62.60;;;;;;5031530;28;19917;-72
2023/08/19 02:04:24;;;;;;;;;;;24.50;62.60;;;;;;5030294;28;20007;-72
2023/08/19 02:06:50;;;;;;;;;;;24.50;62.50;;;;;;5030503;28;19913;-71
2023/08/19 02:09:15;;;;;;;;;;;24.40;62.50;;;;;;5030384;28;19917;-72
2023/08/19 02:11:41;;;;;;;;;;;24.40;62.40;;;;;;5030215;28;20288;-72
2023/08/19 02:14:07;;;;;;;;;;;24.50;62.60;;;;;;5031643;28;19967;-72
2023/08/19 02:16:32;;;;;;;;;;;24.40;62.80;;;;;;5031577;28;19909;-72
2023/08/19 02:18:59;;;;;;;;;;;24.40;62.70;;;;;;5031503;28;19916;-72
2023/08/19 02:21:24;;;;;;;;;;;24.40;62.70;;;;;;5031596;28;19913;-72
2023/08/19 02:23:49;;;;;;;;;;;24.40;62.80;;;;;;5031653;28;20411;-72
2023/08/19 02:26:15;;;;;;;;;;;24.40;62.80;;;;;;5031252;28;19913;-72
2023/08/19 02:28:40;;;;;;;;;;;24.40;63.10;;;;;;5030087;28;19967;-72
2023/08/19 02:31:06;;;;;;;;;;;24.40;63.30;;;;;;5031794;28;19921;-72
2023/08/19 02:33:31;;;;;;;;;;;24.40;63.10;;;;;;5029950;28;19909;-72
2023/08/19 02:35:57;;;;;;;;;;;24.30;63.20;;;;;;5031848;28;20430;-72
2023/08/19 02:38:22;;;;;;;;;;;24.40;63.10;;;;;;5031162;28;19913;-71
2023/08/19 02:40:51;;;;;;;;;;;24.30;63.10;;;;;;5031602;28;19921;-72
2023/08/19 02:43:17;;;;;;;;;;;24.30;63.30;;;;;;5031398;28;19963;-72
2023/08/19 02:45:42;;;;;;;;;;;24.30;63.30;;;;;;5031527;28;20376;-72
2023/08/19 02:48:08;;;;;;;;;;;24.30;63.20;;;;;;5031068;28;19909;-73
2023/08/19 02:50:33;;;;;;;;;;;24.30;63.30;;;;;;5035286;28;19928;-79
2023/08/19 02:52:59;;;;;;;;;;;24.30;63.20;;;;;;5047001;28;19953;-78
2023/08/19 02:55:24;;;;;;;;;;;24.20;63.10;;;;;;5045449;28;19924;-78
2023/08/19 02:57:50;;;;;;;;;;;24.20;63.20;;;;;;5046205;28;19936;-78
2023/08/19 03:00:15;;;;;;;;;;;24.20;63.30;;;;;;5046797;28;19925;-79
2023/08/19 03:02:44;;;;;;;;;;;24.20;63.30;;;;;;5044683;28;19914;-77
2023/08/19 03:05:10;;;;;;;;;;;24.20;63.30;;;;;;5043643;28;19917;-79
2023/08/19 03:07:35;;;;;;;;;;;24.20;63.30;;;;;;5048319;28;19952;-78
2023/08/19 03:10:01;;;;;;;;;;;24.20;63.30;;;;;;5049291;28;19961;-78
2023/08/19 03:12:26;;;;;;;;;;;24.10;63.50;;;;;;5045255;28;19996;-77
2023/08/19 03:14:52;;;;;;;;;;;24.10;63.60;;;;;;5045757;28;19917;-78
2023/08/19 03:17:17;;;;;;;;;;;24.10;63.60;;;;;;5044595;28;19913;-78
2023/08/19 03:19:43;;;;;;;;;;;24.10;63.70;;;;;;5045641;28;19921;-78
2023/08/19 03:22:08;;;;;;;;;;;24.00;63.70;;;;;;5044466;28;20414;-77
2023/08/19 03:24:33;;;;;;;;;;;24.00;63.70;;;;;;5046286;28;19917;-77
2023/08/19 03:26:59;;;;;;;;;;;24.00;63.60;;;;;;5045532;28;19921;-77
2023/08/19 03:29:25;;;;;;;;;;;24.00;63.50;;;;;;5046523;28;19917;-77
2023/08/19 03:31:51;;;;;;;;;;;24.00;63.50;;;;;;5048301;28;19913;-78
2023/08/19 03:34:16;;;;;;;;;;;24.00;63.50;;;;;;5046543;28;19932;-78
2023/08/19 03:36:41;;;;;;;;;;;24.00;63.50;;;;;;5045996;28;19909;-78
2023/08/19 03:39:07;;;;;;;;;;;23.90;63.60;;;;;;5046651;28;19917;-78
2023/08/19 03:41:32;;;;;;;;;;;23.90;63.60;;;;;;5045878;28;19909;-77
2023/08/19 03:43:58;;;;;;;;;;;23.90;63.70;;;;;;5045424;28;19912;-77
2023/08/19 03:46:23;;;;;;;;;;;23.80;63.70;;;;;;5044581;28;19914;-76
2023/08/19 03:48:49;;;;;;;;;;;23.80;63.80;;;;;;5044863;28;19917;-79
2023/08/19 03:51:14;;;;;;;;;;;23.80;63.70;;;;;;5043842;28;19936;-78
2023/08/19 03:53:40;;;;;;;;;;;23.80;63.70;;;;;;5045990;28;19913;-78
2023/08/19 03:56:05;;;;;;;;;;;23.80;63.70;;;;;;5047087;28;19967;-76
2023/08/19 03:58:31;;;;;;;;;;;23.80;63.70;;;;;;5043781;28;20041;-77
2023/08/19 04:01:06;;;;;;;;;;;23.70;63.80;;;;;;5040864;28;19920;-72
2023/08/19 04:03:31;;;;;;;;;;;23.70;63.80;;;;;;5032433;28;19917;-72
2023/08/19 04:05:57;;;;;;;;;;;23.70;63.90;;;;;;5034123;28;20007;-73
2023/08/19 04:08:22;;;;;;;;;;;23.70;63.90;;;;;;5032434;28;20364;-73
2023/08/19 04:10:48;;;;;;;;;;;23.70;64.00;;;;;;5034110;28;19914;-72
2023/08/19 04:13:13;;;;;;;;;;;23.70;64.20;;;;;;5032454;28;19913;-72
2023/08/19 04:15:39;;;;;;;;;;;23.70;64.20;;;;;;5032408;28;19913;-72
2023/08/19 04:18:04;;;;;;;;;;;23.70;64.30;;;;;;5032737;28;19921;-73
2023/08/19 04:20:30;;;;;;;;;;;23.70;64.40;;;;;;5033724;28;19924;-72
2023/08/19 04:22:55;;;;;;;;;;;23.70;64.40;;;;;;5033374;28;20036;-73
2023/08/19 04:25:21;;;;;;;;;;;23.80;64.40;;;;;;5032124;28;20026;-73
2023/08/19 04:27:46;;;;;;;;;;;23.80;64.40;;;;;;5033553;28;20365;-73
2023/08/19 04:30:12;;;;;;;;;;;23.80;64.60;;;;;;5033142;28;19913;-73
2023/08/19 04:32:38;;;;;;;;;;;23.80;64.90;;;;;;5033257;28;19913;-72
2023/08/19 04:35:04;;;;;;;;;;;24.00;65.10;;;;;;5033469;28;19920;-73
2023/08/19 04:37:29;;;;;;;;;;;24.20;65.20;;;;;;5033085;28;20012;-73
2023/08/19 04:39:55;;;;;;;;;;;24.30;65.20;;;;;;5033385;28;20350;-73
2023/08/19 04:42:20;;;;;;;;;;;24.40;65.30;;;;;;5033208;28;19947;-73
2023/08/19 04:44:45;;;;;;;;;;;24.70;65.40;;;;;;5033101;28;19913;-72
2023/08/19 04:47:11;;;;;;;;;;;24.80;65.50;;;;;;5032931;28;19913;-73
2023/08/19 04:49:36;;;;;;;;;;;25.00;65.40;;;;;;5032834;28;20391;-73
2023/08/19 04:52:04;;;;;;;;;;;25.20;65.50;;;;;;5032941;28;19916;-73
2023/08/19 04:54:29;;;;;;;;;;;25.40;65.40;;;;;;5032956;28;19917;-73
2023/08/19 04:56:55;;;;;;;;;;;25.60;65.30;;;;;;5032976;28;19921;-73
2023/08/19 04:59:20;;;;;;;;;;;25.80;65.40;;;;;;5032949;28;20012;-72
2023/08/19 05:01:46;;;;;;;;;;;26.10;65.50;;;;;;5032728;28;20397;-73
2023/08/19 05:04:11;;;;;;;;;;;26.40;65.50;;;;;;5032679;28;20245;-73
2023/08/19 05:06:37;;;;;;;;;;;26.80;65.20;;;;;;5032649;28;19909;-73
2023/08/19 05:09:03;;;;;;;;;;;27.10;64.90;;;;;;5032637;28;19916;-73
2023/08/19 05:11:28;;;;;;;;;;;27.40;64.20;;;;;;5040906;28;19917;-78
2023/08/19 05:13:54;;;;;;;;;;;27.80;64.10;;;;;;5048486;28;20383;-79
2023/08/19 05:16:19;;;;;;;;;;;28.10;63.90;;;;;;5047329;28;20423;-80
2023/08/19 05:18:44;;;;;;;;;;;28.50;63.70;;;;;;5046187;28;19920;-78
2023/08/19 05:21:10;;;;;;;;;;;28.80;62.80;;;;;;5046383;28;19928;-78
2023/08/19 05:23:35;;;;;;;;;;;29.20;61.60;;;;;;5048547;28;20008;-80
2023/08/19 05:26:01;;;;;;;;;;;29.50;61.30;;;;;;5046389;28;19928;-80
2023/08/19 05:28:26;;;;;;;;;;;29.80;60.20;;;;;;5048421;28;19944;-76
2023/08/19 05:30:52;;;;;;;;;;;30.10;58.70;;;;;;5049724;28;19921;-79
2023/08/19 05:33:17;;;;;;;;;;;30.40;57.60;;;;;;5048720;28;20390;-78
2023/08/19 05:35:43;;;;;;;;;;;30.70;57.20;;;;;;5046579;28;19928;-79
2023/08/19 05:38:08;;;;;;;;;;;31.00;56.80;;;;;;5048678;28;19913;-78
2023/08/19 05:40:34;;;;;;;;;;;31.30;55.50;;;;;;5047266;28;19917;-78
2023/08/19 05:42:59;;;;;;;;;;;31.50;54.80;;;;;;5044796;28;19996;-78
2023/08/19 05:45:25;;;;;;;;;;;31.70;53.60;;;;;;5045958;28;19921;-79
2023/08/19 05:47:50;;;;;;;;;;;31.90;53.20;;;;;;5047550;28;19944;-78
2023/08/19 05:50:17;;;;;;;;;;;32.20;51.70;;;;;;5045596;28;19925;-78
2023/08/19 05:52:42;;;;;;;;;;;32.40;52.10;;;;;;5044048;28;19948;-79
2023/08/19 05:55:08;;;;;;;;;;;32.80;51.70;;;;;;5045659;28;19928;-75
2023/08/19 05:57:33;;;;;;;;;;;33.20;51.20;;;;;;5046247;28;20353;-79
2023/08/19 05:59:59;;;;;;;;;;;33.50;50.20;;;;;;5046456;28;19989;-80
2023/08/19 06:02:26;;;;;;;;;;;33.80;50.00;;;;;;5046072;28;20198;-80
2023/08/19 06:04:52;;;;;;;;;;;34.20;48.90;;;;;;5045490;28;19913;-80
2023/08/19 06:07:25;;;;;;;;;;;34.50;48.50;;;;;;5044613;28;19913;-80
2023/08/19 06:09:51;;;;;;;;;;;34.80;47.60;;;;;;5044861;28;19924;-80
2023/08/19 06:12:16;;;;;;;;;;;35.20;46.80;;;;;;5044854;28;19917;-81
2023/08/19 06:14:41;;;;;;;;;;;35.50;45.70;;;;;;5045409;28;19920;-81
2023/08/19 06:17:07;;;;;;;;;;;35.70;45.30;;;;;;5046434;28;19906;-82
2023/08/19 06:19:32;;;;;;;;;;;36.00;44.90;;;;;;5044920;28;19928;-81
2023/08/19 06:21:58;;;;;;;;;;;36.30;44.40;;;;;;5043868;28;19977;-80
2023/08/19 06:24:23;;;;;;;;;;;36.50;43.70;;;;;;5043969;28;19917;-77
2023/08/19 06:26:49;;;;;;;;;;;36.80;43.10;;;;;;5047152;28;19908;-81
2023/08/19 06:29:14;;;;;;;;;;;37.10;42.70;;;;;;5046830;28;19920;-79
2023/08/19 06:31:40;;;;;;;;;;;37.20;41.10;;;;;;5046119;28;19985;-81
2023/08/19 06:34:05;;;;;;;;;;;37.30;40.90;;;;;;5047594;28;19925;-81
2023/08/19 06:36:33;;;;;;;;;;;37.30;40.40;;;;;;5043607;28;20169;-80
2023/08/19 06:39:28;;;;;;;;;;;37.40;40.00;;;;;;5048026;28;20392;-79
2023/08/19 06:42:04;;;;;;;;;;;37.40;39.20;;;;;;5041379;28;19916;-81
2023/08/19 06:44:30;;;;;;;;;;;37.40;38.90;;;;;;5047946;28;19917;-82
2023/08/19 06:46:56;;;;;;;;;;;37.50;38.80;;;;;;5046797;28;19920;-82
2023/08/19 06:49:21;;;;;;;;;;;37.70;38.70;;;;;;5045804;28;20015;-82
2023/08/19 06:51:47;;;;;;;;;;;37.80;38.50;;;;;;5044505;28;19998;-82
2023/08/19 06:54:13;;;;;;;;;;;38.00;38.30;;;;;;5045192;28;19917;-81
2023/08/19 06:56:44;;;;;;;;;;;38.10;38.00;;;;;;5045382;28;19913;-82
2023/08/19 06:59:12;;;;;;;;;;;38.20;37.90;;;;;;5046686;28;19925;-82
2023/08/19 07:01:40;;;;;;;;;;;38.30;37.70;;;;;;5045416;28;19913;-82
2023/08/19 07:04:06;;;;;;;;;;;38.40;37.50;;;;;;5046397;28;19909;-82
2023/08/19 07:06:31;;;;;;;;;;;38.50;37.20;;;;;;5045977;28;20491;-82
2023/08/19 07:08:58;;;;;;;;;;;38.70;37.50;;;;;;5046180;28;19909;-80
2023/08/19 07:11:24;;;;;;;;;;;39.10;37.20;;;;;;5049758;28;19959;-74
2023/08/19 07:13:50;;;;;;;;;;;39.60;37.00;;;;;;5044386;28;19912;-81
2023/08/19 07:16:17;;;;;;;;;;;39.90;36.20;;;;;;5036634;28;20365;-80
2023/08/19 07:18:46;;;;;;;;;;;40.20;36.00;;;;;;5037308;28;19913;-77
2023/08/19 07:21:13;;;;;;;;;;;40.70;35.60;;;;;;5029559;28;20308;-79
2023/08/19 07:23:39;;;;;;;;;;;41.10;34.80;;;;;;5018366;28;20377;-80
2023/08/19 07:26:05;;;;;;;;;;;41.50;34.10;;;;;;5017857;28;19917;-81
2023/08/19 07:28:31;;;;;;;;;;;41.80;33.30;;;;;;5016980;28;19920;-80
2023/08/19 07:30:57;;;;;;;;;;;42.00;32.50;;;;;;5016805;28;19917;-80
2023/08/19 07:33:23;;;;;;;;;;;42.30;32.70;;;;;;5016948;28;20373;-81
2023/08/19 07:35:48;;;;;;;;;;;42.40;31.50;;;;;;5016118;28;19918;-82
2023/08/19 07:38:14;;;;;;;;;;;42.10;31.50;;;;;;5015074;28;19964;-82
2023/08/19 07:40:39;;;;;;;;;;;41.80;31.40;;;;;;5015539;28;20359;-82
2023/08/19 07:43:05;;;;;;;;;;;41.30;31.90;;;;;;5014000;28;19918;-81
2023/08/19 07:45:30;;;;;;;;;;;40.80;32.50;;;;;;5028333;28;19928;-80
2023/08/19 07:47:56;;;;;;;;;;;40.50;32.90;;;;;;5034980;28;19909;-81
2023/08/19 07:50:22;;;;;;;;;;;40.20;33.20;;;;;;5035230;28;19925;-81
2023/08/19 07:52:48;;;;;;;;;;;39.90;33.50;;;;;;5033268;28;19920;-81
2023/08/19 07:55:13;;;;;;;;;;;39.60;33.80;;;;;;5034718;28;19917;-81
2023/08/19 07:57:39;;;;;;;;;;;39.30;34.10;;;;;;5033076;28;19956;-81
2023/08/19 08:00:04;;;;;;;;;;;39.00;34.60;;;;;;5033087;28;20365;-81
2023/08/19 08:02:30;;;;;;;;;;;38.80;35.00;;;;;;5033032;28;19916;-81
2023/08/19 08:04:55;;;;;;;;;;;38.60;35.30;;;;;;5034811;28;19917;-82
2023/08/19 08:07:21;;;;;;;;;;;38.30;35.40;;;;;;5032629;28;20316;-80
2023/08/19 08:09:47;;;;;;;;;;;38.10;35.50;;;;;;5034241;28;19956;-82
2023/08/19 08:12:12;;;;;;;;;;;37.80;36.00;;;;;;5034513;28;19909;-81
2023/08/19 08:14:38;;;;;;;;;;;37.70;36.40;;;;;;5034778;28;19913;-81
2023/08/19 08:17:03;;;;;;;;;;;37.60;36.90;;;;;;5033913;28;20353;-80
2023/08/19 08:19:29;;;;;;;;;;;37.60;37.00;;;;;;5034695;28;19910;-79
2023/08/19 08:21:54;;;;;;;;;;;37.70;37.00;;;;;;5017561;28;19917;-81
2023/08/19 08:24:20;;;;;;;;;;;37.80;36.90;;;;;;5014330;28;19922;-80
2023/08/19 08:26:46;;;;;;;;;;;37.80;37.10;;;;;;5012972;28;19968;-80
2023/08/19 08:29:12;;;;;;;;;;;38.00;37.10;;;;;;5014889;28;19920;-80
2023/08/19 08:31:37;;;;;;;;;;;38.00;36.90;;;;;;5011384;28;19924;-79
2023/08/19 08:34:03;;;;;;;;;;;38.30;36.80;;;;;;5014363;28;19913;-76
2023/08/19 08:36:28;;;;;;;;;;;38.50;36.30;;;;;;5014088;28;20014;-80
2023/08/19 08:38:54;;;;;;;;;;;38.60;35.80;;;;;;5014326;28;19968;-80
2023/08/19 08:41:20;;;;;;;;;;;38.80;35.60;;;;;;5011736;28;19918;-80
2023/08/19 08:43:46;;;;;;;;;;;39.00;35.80;;;;;;5014682;28;19910;-80
2023/08/19 08:46:13;;;;;;;;;;;39.20;35.30;;;;;;5022064;28;19917;-79
2023/08/19 08:48:38;;;;;;;;;;;39.20;35.10;;;;;;5029271;28;20398;-80
2023/08/19 08:51:04;;;;;;;;;;;39.30;34.90;;;;;;5019604;28;19957;-79
2023/08/19 08:53:33;;;;;;;;;;;39.40;34.70;;;;;;5012908;28;19909;-79
2023/08/19 08:55:58;;;;;;;;;;;39.40;34.70;;;;;;5014276;28;19932;-79
2023/08/19 08:58:24;;;;;;;;;;;39.40;34.70;;;;;;5013648;28;19925;-79
2023/08/19 09:00:50;;;;;;;;;;;39.40;34.70;;;;;;5007603;28;19918;-80
2023/08/19 09:03:20;;;;;;;;;;;39.50;34.80;;;;;;5014559;28;19917;-79
2023/08/19 09:05:48;;;;;;;;;;;39.50;34.70;;;;;;5013442;28;20324;-80
2023/08/19 09:08:15;;;;;;;;;;;39.60;34.50;;;;;;5013640;28;20012;-80
2023/08/19 09:10:43;;;;;;;;;;;39.60;34.20;;;;;;5006415;28;19949;-77
2023/08/19 09:13:09;;;;;;;;;;;39.60;34.30;;;;;;5011877;28;19917;-79
2023/08/19 09:15:35;;;;;;;;;;;39.60;34.50;;;;;;5013104;28;19909;-80
2023/08/19 09:18:01;;;;;;;;;;;39.60;34.30;;;;;;5011866;28;20380;-80
2023/08/19 09:20:27;;;;;;;;;;;39.50;34.20;;;;;;5010914;28;19914;-75
2023/08/19 09:23:03;;;;;;;;;;;39.60;34.20;;;;;;5041750;28;19960;-79
2023/08/19 09:25:29;;;;;;;;;;;39.50;34.30;;;;;;5011224;28;19980;-79
2023/08/19 09:27:55;;;;;;;;;;;39.60;34.30;;;;;;5013040;28;19917;-80
2023/08/19 09:30:20;;;;;;;;;;;39.60;33.90;;;;;;5011666;28;19921;-78
2023/08/19 09:32:46;;;;;;;;;;;39.50;34.20;;;;;;5017615;28;19909;-79
2023/08/19 09:35:12;;;;;;;;;;;39.60;34.00;;;;;;5022598;28;20006;-80
2023/08/19 09:37:38;;;;;;;;;;;39.80;34.10;;;;;;5024482;28;19919;-79
2023/08/19 09:40:17;;;;;;;;;;;40.20;34.10;;;;;;5022223;28;19917;-79
2023/08/19 09:42:47;;;;;;;;;;;40.60;33.50;;;;;;5017972;28;20365;-79
2023/08/19 09:45:19;;;;;;;;;;;40.90;33.00;;;;;;5024978;28;20380;-79
2023/08/19 09:47:46;;;;;;;;;;;41.20;32.30;;;;;;5026164;28;20258;-79
2023/08/19 09:50:11;;;;;;;;;;;41.30;32.00;;;;;;5030077;28;19928;-73
2023/08/19 09:52:37;;;;;;;;;;;41.30;32.00;;;;;;5007072;28;19917;-74
2023/08/19 09:55:03;;;;;;;;;;;41.50;32.10;;;;;;5011403;28;19968;-73
2023/08/19 09:57:32;;;;;;;;;;;41.70;31.60;;;;;;5010790;28;19917;-74
2023/08/19 09:59:58;;;;;;;;;;;41.80;31.80;;;;;;5012520;28;19968;-73
2023/08/19 10:02:23;;;;;;;;;;;42.10;32.20;;;;;;5008270;28;20365;-72
2023/08/19 10:04:49;;;;;;;;;;;42.50;31.80;;;;;;5012203;28;19918;-72
2023/08/19 10:07:15;;;;;;;;;;;42.90;30.90;;;;;;5011649;28;19963;-72
2023/08/19 10:09:41;;;;;;;;;;;43.10;30.40;;;;;;5012383;28;19967;-72
2023/08/19 10:12:08;;;;;;;;;;;43.30;29.90;;;;;;5020529;28;20311;-72
2023/08/19 10:14:35;;;;;;;;;;;43.40;29.70;;;;;;5032260;28;19917;-72
2023/08/19 10:17:07;;;;;;;;;;;43.60;29.60;;;;;;5030804;28;19916;-72
2023/08/19 10:19:37;;;;;;;;;;;44.00;29.10;;;;;;5031946;28;20268;-72
2023/08/19 10:22:03;;;;;;;;;;;44.30;28.80;;;;;;5013071;28;20373;-72
2023/08/19 10:24:29;;;;;;;;;;;44.30;28.20;;;;;;5012039;28;19989;-72
2023/08/19 10:26:54;;;;;;;;;;;44.30;27.90;;;;;;5011698;28;19921;-72
2023/08/19 10:29:20;;;;;;;;;;;44.20;28.00;;;;;;5011673;28;19917;-72
2023/08/19 10:31:45;;;;;;;;;;;43.90;27.90;;;;;;5006671;28;20344;-73
2023/08/19 10:34:22;;;;;;;;;;;43.60;27.90;;;;;;5020603;28;19921;-72
2023/08/19 10:37:07;;;;;;;;;;;43.20;28.10;;;;;;5023928;28;20280;-71
2023/08/19 10:39:32;;;;;;;;;;;42.80;28.50;;;;;;5028805;28;20016;-74
2023/08/19 10:41:58;;;;;;;;;;;42.50;29.00;;;;;;5018099;28;20367;-72
2023/08/19 10:44:31;;;;;;;;;;;42.10;29.20;;;;;;5014418;28;20000;-73
2023/08/19 10:47:09;;;;;;;;;;;41.80;29.70;;;;;;5012644;28;19913;-72
2023/08/19 10:49:35;;;;;;;;;;;41.50;30.20;;;;;;5011209;28;19928;-72
2023/08/19 10:52:03;;;;;;;;;;;41.30;30.50;;;;;;5008886;28;20369;-72
2023/08/19 10:54:47;;;;;;;;;;;41.00;31.00;;;;;;5013604;28;20353;-72
2023/08/19 10:57:22;;;;;;;;;;;40.90;31.40;;;;;;5028493;28;20390;-73
2023/08/19 10:59:50;;;;;;;;;;;40.70;31.70;;;;;;5029987;28;19918;-72
2023/08/19 11:02:15;;;;;;;;;;;40.60;32.10;;;;;;5008545;28;19916;-72
2023/08/19 11:04:42;;;;;;;;;;;40.50;32.30;;;;;;5029981;28;19921;-72
2023/08/19 11:07:07;;;;;;;;;;;40.30;32.60;;;;;;5011971;28;19959;-71
2023/08/19 11:09:33;;;;;;;;;;;40.30;32.80;;;;;;5026645;28;19925;-71
2023/08/19 11:11:59;;;;;;;;;;;40.20;33.20;;;;;;5008611;28;20008;-71
2023/08/19 11:14:24;;;;;;;;;;;40.00;34.20;;;;;;5011281;28;19922;-71
2023/08/19 11:16:51;;;;;;;;;;;39.70;34.40;;;;;;5016690;28;19914;-71
2023/08/19 11:19:17;;;;;;;;;;;39.40;34.70;;;;;;5031079;28;19924;-72
2023/08/19 11:21:42;;;;;;;;;;;39.20;34.90;;;;;;5013345;28;19909;-71
2023/08/19 11:24:08;;;;;;;;;;;39.00;35.00;;;;;;5027266;28;20332;-72
2023/08/19 11:26:35;;;;;;;;;;;39.00;35.00;;;;;;5016080;28;20436;-72
2023/08/19 11:29:03;;;;;;;;;;;38.90;35.20;;;;;;5021598;28;20000;-72
2023/08/19 11:31:28;;;;;;;;;;;39.00;35.40;;;;;;5018334;28;19913;-72
2023/08/19 11:33:54;;;;;;;;;;;39.10;35.40;;;;;;5014852;28;19987;-72
2023/08/19 11:36:23;;;;;;;;;;;39.20;35.40;;;;;;5021465;28;19994;-72
2023/08/19 11:38:49;;;;;;;;;;;39.20;35.30;;;;;;5013194;28;19922;-73
2023/08/19 11:41:14;;;;;;;;;;;39.30;35.30;;;;;;5013737;28;20475;-72
2023/08/19 11:43:46;;;;;;;;;;;39.30;35.40;;;;;;5014501;28;19957;-72
2023/08/19 11:46:11;;;;;;;;;;;39.30;35.40;;;;;;5023124;28;20332;-72
2023/08/19 11:48:37;;;;;;;;;;;39.30;35.50;;;;;;5033671;28;19971;-72
2023/08/19 11:51:07;;;;;;;;;;;39.30;35.60;;;;;;5032808;28;19967;-72
2023/08/19 11:53:33;;;;;;;;;;;39.30;35.40;;;;;;5026145;28;20377;-72
2023/08/19 11:55:59;;;;;;;;;;;39.40;35.40;;;;;;5016699;28;19916;-72
2023/08/19 11:58:35;;;;;;;;;;;39.30;35.00;;;;;;5016197;28;19928;-73
2023/08/19 12:01:01;;;;;;;;;;;39.20;35.70;;;;;;5031707;28;19917;-73
2023/08/19 12:03:28;;;;;;;;;;;39.10;36.30;;;;;;5027245;28;19924;-72
2023/08/19 12:05:53;;;;;;;;;;;39.00;36.20;;;;;;5032614;28;20059;-73
2023/08/19 12:08:31;;;;;;;;;;;38.90;36.10;;;;;;5031912;28;20003;-72
2023/08/19 12:10:58;;;;;;;;;;;38.80;35.90;;;;;;5033772;28;19999;-72
2023/08/19 12:13:24;;;;;;;;;;;38.70;35.80;;;;;;5033105;28;19923;-73
2023/08/19 12:15:49;;;;;;;;;;;38.70;35.90;;;;;;5033866;28;19967;-72
2023/08/19 12:18:18;;;;;;;;;;;38.60;36.10;;;;;;5032139;28;19972;-72
2023/08/19 12:20:44;;;;;;;;;;;38.60;36.20;;;;;;5031088;28;19917;-72
2023/08/19 12:23:09;;;;;;;;;;;38.70;36.20;;;;;;5032946;28;20390;-72
2023/08/19 12:25:51;;;;;;;;;;;38.60;36.20;;;;;;5032163;28;19909;-72
2023/08/19 12:28:16;;;;;;;;;;;38.70;36.30;;;;;;5031995;28;19971;-72
2023/08/19 12:30:42;;;;;;;;;;;38.70;36.30;;;;;;5032125;28;20376;-72
2023/08/19 12:33:11;;;;;;;;;;;38.70;36.40;;;;;;5033312;28;19917;-72
2023/08/19 12:35:36;;;;;;;;;;;38.70;36.30;;;;;;5031893;28;19964;-72
2023/08/19 12:38:03;;;;;;;;;;;38.80;36.40;;;;;;5031705;28;20372;-72
2023/08/19 12:40:29;;;;;;;;;;;38.80;36.40;;;;;;5030659;28;19913;-73
2023/08/19 12:42:55;;;;;;;;;;;38.80;36.40;;;;;;5033235;28;19920;-72
2023/08/19 12:45:20;;;;;;;;;;;38.90;36.40;;;;;;5031489;28;19920;-72
2023/08/19 12:47:46;;;;;;;;;;;39.00;36.20;;;;;;5029998;28;19913;-72
2023/08/19 12:50:12;;;;;;;;;;;39.00;36.20;;;;;;5032756;28;20026;-72
2023/08/19 12:52:38;;;;;;;;;;;39.10;36.30;;;;;;5029956;28;19959;-72
2023/08/19 12:55:04;;;;;;;;;;;39.20;36.00;;;;;;5033286;28;19956;-73
2023/08/19 12:57:29;;;;;;;;;;;39.20;36.00;;;;;;5030747;28;19917;-72
2023/08/19 12:59:55;;;;;;;;;;;39.30;36.20;;;;;;5033162;28;19940;-72
2023/08/19 13:02:20;;;;;;;;;;;39.40;36.10;;;;;;5029898;28;19920;-71
2023/08/19 13:04:46;;;;;;;;;;;39.40;36.00;;;;;;5031833;28;19924;-70
2023/08/19 13:07:11;;;;;;;;;;;39.50;36.10;;;;;;5032306;28;19913;-71
2023/08/19 13:09:38;;;;;;;;;;;39.50;36.10;;;;;;5030818;28;19921;-71
2023/08/19 13:12:03;;;;;;;;;;;39.60;36.10;;;;;;5030645;28;20365;-71
2023/08/19 13:14:29;;;;;;;;;;;39.70;36.10;;;;;;5031006;28;19918;-71
2023/08/19 13:16:54;;;;;;;;;;;39.80;36.00;;;;;;5030536;28;19963;-71
2023/08/19 13:19:20;;;;;;;;;;;40.00;36.00;;;;;;5032635;28;19918;-71
2023/08/19 13:21:45;;;;;;;;;;;40.10;35.40;;;;;;5029198;28;20284;-78
2023/08/19 13:24:11;;;;;;;;;;;40.20;35.30;;;;;;5032258;28;19928;-78
2023/08/19 13:26:36;;;;;;;;;;;40.40;35.10;;;;;;5030359;28;20003;-78
2023/08/19 13:29:03;;;;;;;;;;;40.60;34.80;;;;;;5032435;28;19960;-78
2023/08/19 13:31:28;;;;;;;;;;;40.70;34.20;;;;;;5029484;28;20399;-78
2023/08/19 13:33:54;;;;;;;;;;;40.70;34.10;;;;;;5032457;28;19918;-79
2023/08/19 13:36:19;;;;;;;;;;;41.00;34.30;;;;;;5030033;28;20369;-79
2023/08/19 13:38:45;;;;;;;;;;;41.20;33.40;;;;;;5030638;28;19971;-79
2023/08/19 13:41:11;;;;;;;;;;;41.40;33.40;;;;;;5030012;28;19967;-79
2023/08/19 13:43:39;;;;;;;;;;;41.50;32.20;;;;;;5032709;28;20357;-79
2023/08/19 13:46:04;;;;;;;;;;;41.50;31.80;;;;;;5031367;28;19913;-79
2023/08/19 13:48:30;;;;;;;;;;;41.40;31.50;;;;;;5029446;28;20067;-79
2023/08/19 13:50:55;;;;;;;;;;;41.40;31.40;;;;;;5032127;28;19917;-80
2023/08/19 13:53:21;;;;;;;;;;;41.30;31.60;;;;;;5031416;28;19925;-81
2023/08/19 13:55:46;;;;;;;;;;;41.40;31.60;;;;;;5031407;28;20331;-79
2023/08/19 13:58:12;;;;;;;;;;;41.40;31.80;;;;;;5031895;28;19925;-80
2023/08/19 14:00:37;;;;;;;;;;;41.40;31.90;;;;;;5029803;28;19956;-79
2023/08/19 14:03:03;;;;;;;;;;;41.40;31.80;;;;;;5032370;28;19909;-79
2023/08/19 14:05:28;;;;;;;;;;;41.30;32.00;;;;;;5029954;28;19917;-80
2023/08/19 14:07:54;;;;;;;;;;;41.40;32.20;;;;;;5030374;28;19952;-75
2023/08/19 14:10:22;;;;;;;;;;;41.30;32.10;;;;;;5026979;28;19913;-78
2023/08/19 14:12:48;;;;;;;;;;;41.30;32.30;;;;;;5011480;28;20338;-74